Time;durP1;ratioP1;P1;durP2;ratioP2;P2;SDS_P1;SDS_P2;PMS_P1;PMS_P2;Temp;Humidity;BMP_temperature;BMP_pressure;BME280_temperature;BME280_humidity;BME280_pressure;Samples;Min_cycle;Max_cycle;Signal;HPM_P1;HPM_P2
2020/12/18 00:01:37;;;;;;;32.88;19.48;;;;;;;5.27;76.10;95643.78;4191948;28;20415;-75
2020/12/18 00:03:38;;;;;;;30.85;18.23;;;;;;;5.27;75.96;95643.78;4191658;28;20045;-79
2020/12/18 00:05:42;;;;;;;25.40;16.48;;;;;;;5.31;76.32;95637.44;4193613;28;20103;-77
2020/12/18 00:07:43;;;;;;;26.88;17.58;;;;;;;5.33;75.61;95643.38;4177504;28;20286;-76
2020/12/18 00:09:45;;;;;;;27.42;17.25;;;;;;;5.35;76.05;95643.25;4187131;28;20559;-76
2020/12/18 00:11:46;;;;;;;29.60;16.90;;;;;;;5.33;76.19;95639.94;4196486;28;20139;-77
2020/12/18 00:13:47;;;;;;;26.90;15.68;;;;;;;5.34;76.42;95646.81;4195754;28;20048;-77
2020/12/18 00:15:49;;;;;;;25.10;16.75;;;;;;;5.33;76.39;95650.31;4179901;28;20049;-76
2020/12/18 00:17:50;;;;;;;28.55;16.95;;;;;;;5.30;76.53;95643.56;4166432;28;20055;-77
2020/12/18 00:19:51;;;;;;;28.70;17.80;;;;;;;5.23;76.55;95644.94;4174844;28;20172;-77
2020/12/18 00:21:56;;;;;;;30.27;18.98;;;;;;;5.25;76.30;95648.25;4191920;28;20049;-79
2020/12/18 00:23:57;;;;;;;33.55;19.83;;;;;;;5.16;76.30;95643.66;4161148;28;20517;-78
2020/12/18 00:25:59;;;;;;;27.13;16.35;;;;;;;5.19;76.12;95638.28;4192622;28;20063;-77
2020/12/18 00:28:00;;;;;;;31.50;18.65;;;;;;;5.20;76.49;95639.91;4190586;28;20064;-77
2020/12/18 00:30:01;;;;;;;29.48;17.88;;;;;;;5.22;76.34;95638.06;4173971;28;20045;-78
2020/12/18 00:32:04;;;;;;;30.88;18.83;;;;;;;5.17;76.56;95644.50;4191510;28;20120;-77
2020/12/18 00:34:05;;;;;;;24.65;16.63;;;;;;;5.18;76.46;95641.78;4192180;28;20195;-76
2020/12/18 00:36:10;;;;;;;31.90;17.15;;;;;;;5.26;76.37;95638.69;4191804;28;20083;-77
2020/12/18 00:38:12;;;;;;;31.98;18.45;;;;;;;5.20;76.64;95639.91;4188974;28;20487;-76
2020/12/18 00:40:13;;;;;;;27.85;17.02;;;;;;;5.22;76.80;95643.25;4174267;28;20053;-76
2020/12/18 00:42:14;;;;;;;29.83;18.58;;;;;;;5.12;76.81;95642.22;4191079;28;20436;-77
2020/12/18 00:44:15;;;;;;;27.45;16.48;;;;;;;5.15;76.00;95646.38;4191198;28;20053;-78
2020/12/18 00:46:17;;;;;;;27.52;17.40;;;;;;;5.12;77.01;95647.41;4192416;28;20057;-78
2020/12/18 00:48:19;;;;;;;29.55;17.17;;;;;;;5.04;76.57;95647.09;4191529;28;20040;-77
2020/12/18 00:50:20;;;;;;;27.15;16.65;;;;;;;5.05;77.31;95643.56;4192512;28;20080;-78
2020/12/18 00:52:24;;;;;;;27.10;15.93;;;;;;;5.08;76.62;95644.19;4193047;28;20049;-76
2020/12/18 00:54:25;;;;;;;29.05;17.35;;;;;;;5.07;76.12;95655.50;4196658;28;20063;-76
2020/12/18 00:56:27;;;;;;;28.45;17.52;;;;;;;5.05;76.93;95653.94;4194828;28;20052;-77
2020/12/18 00:58:28;;;;;;;30.90;18.20;;;;;;;5.06;76.67;95653.84;4196997;28;20045;-78
2020/12/18 01:00:29;;;;;;;28.48;16.00;;;;;;;5.04;77.32;95660.06;4190220;28;20547;-76
2020/12/18 01:02:31;;;;;;;27.25;15.30;;;;;;;5.02;76.94;95652.38;4177665;28;20517;-76
2020/12/18 01:04:32;;;;;;;29.50;16.40;;;;;;;5.03;77.19;95658.41;4194764;28;20056;-77
2020/12/18 01:06:34;;;;;;;32.53;15.73;;;;;;;5.06;76.67;95650.41;4195304;28;20135;-75
2020/12/18 01:08:35;;;;;;;28.05;16.25;;;;;;;5.08;76.55;95649.38;4194911;28;20370;-77
2020/12/18 01:10:37;;;;;;;27.38;15.25;;;;;;;5.12;76.86;95650.03;4194580;28;20053;-77
2020/12/18 01:12:38;;;;;;;29.55;16.73;;;;;;;5.12;76.06;95658.63;4194632;28;20452;-77
2020/12/18 01:14:40;;;;;;;27.58;16.33;;;;;;;5.07;76.63;95647.69;4193856;28;20449;-77
2020/12/18 01:16:41;;;;;;;30.50;18.25;;;;;;;5.10;75.38;95649.28;4194858;28;20052;-78
2020/12/18 01:18:42;;;;;;;26.23;17.27;;;;;;;5.07;76.18;95657.25;4177195;28;20087;-77
2020/12/18 01:20:59;;;;;;;26.67;15.80;;;;;;;5.05;75.80;95646.97;4179111;28;20051;-78
2020/12/18 01:23:00;;;;;;;28.58;17.63;;;;;;;5.07;74.95;95652.91;4195508;28;20211;-77
2020/12/18 01:25:03;;;;;;;28.88;17.38;;;;;;;5.05;75.38;95653.94;4194287;28;20132;-78
2020/12/18 01:27:04;;;;;;;27.45;16.38;;;;;;;5.04;74.94;95645.31;4193059;28;20419;-78
2020/12/18 01:29:05;;;;;;;26.70;17.05;;;;;;;4.99;75.46;95650.00;4183683;28;20259;-76
2020/12/18 01:31:07;;;;;;;29.27;17.70;;;;;;;4.99;74.95;95651.75;4194684;28;20109;-76
2020/12/18 01:33:08;;;;;;;27.25;17.20;;;;;;;5.03;74.99;95654.03;4194954;28;20056;-76
2020/12/18 01:35:10;;;;;;;27.42;16.65;;;;;;;5.05;74.67;95649.56;4194040;28;20514;-79
2020/12/18 01:37:12;;;;;;;28.60;17.05;;;;;;;5.04;75.00;95639.31;4194543;28;20049;-76
2020/12/18 01:39:13;;;;;;;30.25;18.80;;;;;;;5.04;75.19;95640.13;4194067;28;20127;-77
2020/12/18 01:41:14;;;;;;;29.23;16.77;;;;;;;5.04;74.89;95639.31;4188076;28;20411;-77
2020/12/18 01:43:16;;;;;;;33.35;17.77;;;;;;;5.03;75.91;95642.81;4184065;28;20044;-76
2020/12/18 01:45:17;;;;;;;27.92;16.25;;;;;;;4.98;75.66;95643.13;4194410;28;20486;-77
2020/12/18 01:47:29;;;;;;;28.30;16.88;;;;;;;4.99;75.52;95638.75;4177847;28;20077;-76
2020/12/18 01:49:31;;;;;;;27.70;16.80;;;;;;;5.02;76.27;95646.38;4166742;28;20516;-78
2020/12/18 01:51:32;;;;;;;28.80;17.17;;;;;;;5.02;76.17;95643.75;4195250;28;20520;-78
2020/12/18 01:53:33;;;;;;;32.53;19.30;;;;;;;4.95;76.33;95647.69;4181219;28;20124;-76
2020/12/18 01:55:35;;;;;;;30.00;16.77;;;;;;;4.96;76.13;95649.38;4203439;28;20416;-76
2020/12/18 01:57:37;;;;;;;28.48;17.25;;;;;;;4.97;76.48;95648.41;4189808;28;20505;-77
2020/12/18 01:59:38;;;;;;;30.40;17.13;;;;;;;4.99;76.43;95652.59;4172319;28;20048;-76
2020/12/18 02:01:40;;;;;;;32.60;18.35;;;;;;;4.95;75.91;95643.34;4176701;28;20053;-77
2020/12/18 02:03:41;;;;;;;30.95;16.42;;;;;;;4.95;76.84;95639.88;4197969;28;20044;-77
2020/12/18 02:05:42;;;;;;;31.40;16.95;;;;;;;4.90;76.73;95638.47;4203164;28;20052;-77
2020/12/18 02:07:49;;;;;;;37.30;17.05;;;;;;;4.90;76.94;95638.47;4204027;28;20374;-77
2020/12/18 02:09:50;;;;;;;32.63;17.83;;;;;;;4.98;76.74;95642.31;4178469;28;20053;-79
2020/12/18 02:11:53;;;;;;;36.20;17.42;;;;;;;4.96;76.48;95638.97;4193725;28;20126;-77
2020/12/18 02:13:54;;;;;;;31.17;17.27;;;;;;;4.92;76.28;95636.56;4193495;28;20415;-75
2020/12/18 02:15:55;;;;;;;30.13;17.45;;;;;;;4.89;76.97;95631.59;4177436;28;20240;-77
2020/12/18 02:17:58;;;;;;;30.70;17.38;;;;;;;4.89;76.27;95626.41;4194353;28;20079;-75
2020/12/18 02:19:59;;;;;;;30.70;18.70;;;;;;;4.89;76.49;95630.75;4176987;28;20132;-76
2020/12/18 02:22:13;;;;;;;34.30;18.25;;;;;;;4.87;76.54;95630.03;4176171;28;20052;-76
2020/12/18 02:24:27;;;;;;;36.25;18.77;;;;;;;4.87;76.45;95632.63;4195203;28;20725;-79
2020/12/18 02:26:29;;;;;;;34.50;18.90;;;;;;;4.81;76.32;95638.22;4192593;28;20077;-77
2020/12/18 02:28:30;;;;;;;36.38;19.77;;;;;;;4.75;76.33;95636.84;4196298;28;20071;-76
2020/12/18 02:30:31;;;;;;;38.90;19.90;;;;;;;4.73;76.29;95636.09;4196156;28;20339;-77
2020/12/18 02:32:33;;;;;;;35.30;18.77;;;;;;;4.70;76.68;95631.97;4194721;28;20036;-76
2020/12/18 02:34:34;;;;;;;37.60;18.08;;;;;;;4.68;76.34;95639.00;4196732;28;20112;-77
2020/12/18 02:36:35;;;;;;;36.72;19.55;;;;;;;4.59;76.51;95644.81;4195154;28;20040;-77
2020/12/18 02:38:37;;;;;;;36.67;19.73;;;;;;;4.57;76.08;95646.66;4177343;28;20099;-79
2020/12/18 02:40:38;;;;;;;36.15;18.77;;;;;;;4.52;76.53;95638.34;4195371;28;20048;-78
2020/12/18 02:42:39;;;;;;;35.83;18.25;;;;;;;4.48;76.32;95639.50;4193083;28;20044;-77
2020/12/18 02:44:40;;;;;;;35.05;19.30;;;;;;;4.46;77.16;95642.16;4194633;28;20622;-78
2020/12/18 02:46:42;;;;;;;36.70;18.65;;;;;;;4.49;76.50;95639.38;4176370;28;20045;-76
2020/12/18 02:48:43;;;;;;;36.22;18.70;;;;;;;4.49;76.58;95639.38;4194374;28;20064;-76
2020/12/18 02:50:49;;;;;;;32.38;18.13;;;;;;;4.44;76.23;95640.63;4192164;28;20057;-79
2020/12/18 02:52:50;;;;;;;33.13;17.98;;;;;;;4.44;76.71;95641.44;4187925;28;20593;-77
2020/12/18 02:54:52;;;;;;;39.70;19.25;;;;;;;4.50;76.86;95646.25;4195563;28;20231;-77
2020/12/18 02:56:53;;;;;;;34.83;18.13;;;;;;;4.53;76.24;95639.19;4162962;28;20045;-79
2020/12/18 02:58:56;;;;;;;36.92;18.77;;;;;;;4.55;76.72;95637.31;4174369;28;20045;-77
2020/12/18 03:00:57;;;;;;;34.40;18.50;;;;;;;4.58;75.97;95642.31;4193805;28;20473;-76
2020/12/18 03:02:58;;;;;;;34.20;17.50;;;;;;;4.60;76.44;95635.25;4176691;28;20045;-78
2020/12/18 03:05:00;;;;;;;28.85;17.45;;;;;;;4.67;76.42;95637.38;4191682;28;20415;-77
2020/12/18 03:07:01;;;;;;;34.75;18.55;;;;;;;4.60;76.72;95641.25;4193746;28;20055;-78
2020/12/18 03:09:03;;;;;;;31.55;16.80;;;;;;;4.62;76.79;95638.59;4193728;28;20494;-77
2020/12/18 03:11:05;;;;;;;29.05;17.35;;;;;;;4.65;77.09;95635.81;4177225;28;20065;-75
2020/12/18 03:13:07;;;;;;;30.05;16.90;;;;;;;4.68;77.66;95643.38;4204593;28;20055;-76
2020/12/18 03:15:08;;;;;;;31.70;16.60;;;;;;;4.64;77.51;95636.72;4188334;28;20151;-78
2020/12/18 03:17:09;;;;;;;33.45;17.75;;;;;;;4.68;77.37;95638.19;4205590;28;20108;-77
2020/12/18 03:19:12;;;;;;;31.13;18.25;;;;;;;4.68;77.18;95633.81;4205703;28;20048;-76
2020/12/18 03:21:13;;;;;;;30.70;17.17;;;;;;;4.66;76.52;95637.44;4181362;28;20172;-77
2020/12/18 03:23:14;;;;;;;30.13;15.77;;;;;;;4.59;75.74;95639.63;4198743;28;20048;-76
2020/12/18 03:25:16;;;;;;;30.83;16.45;;;;;;;4.54;76.13;95640.84;4195973;28;20135;-78
2020/12/18 03:27:18;;;;;;;32.42;16.58;;;;;;;4.52;76.15;95640.97;4186828;28;20172;-75
2020/12/18 03:29:20;;;;;;;30.73;16.77;;;;;;;4.55;76.33;95639.91;4211985;28;20058;-74
2020/12/18 03:31:21;;;;;;;28.90;15.52;;;;;;;4.41;76.34;95645.97;4222822;28;20107;-77
2020/12/18 03:33:23;;;;;;;26.55;16.13;;;;;;;4.34;76.49;95642.13;4194731;28;20051;-76
2020/12/18 03:35:24;;;;;;;27.77;16.13;;;;;;;4.37;76.12;95647.13;4207353;28;20220;-78
2020/12/18 03:37:25;;;;;;;27.33;15.13;;;;;;;4.28;76.02;95651.13;4190224;28;20057;-76
2020/12/18 03:39:27;;;;;;;28.13;14.38;;;;;;;4.28;76.54;95648.53;4210268;28;20068;-78
2020/12/18 03:41:28;;;;;;;25.02;14.80;;;;;;;4.24;75.78;95654.88;4221082;28;20044;-78
2020/12/18 03:43:29;;;;;;;25.15;15.25;;;;;;;4.16;76.18;95655.31;4223694;28;20076;-76
2020/12/18 03:45:31;;;;;;;22.98;13.73;;;;;;;4.14;75.82;95654.59;4199818;28;20303;-76
2020/12/18 03:47:32;;;;;;;24.80;14.48;;;;;;;4.18;76.07;95656.06;4203005;28;20056;-78
2020/12/18 03:49:34;;;;;;;24.73;14.38;;;;;;;4.20;76.15;95653.38;4203464;28;20083;-76
2020/12/18 03:51:35;;;;;;;25.58;14.68;;;;;;;4.18;75.91;95655.25;4205621;28;20048;-75
2020/12/18 03:53:36;;;;;;;23.98;14.25;;;;;;;4.16;76.13;95651.91;4187672;28;20069;-76
2020/12/18 03:55:38;;;;;;;24.98;13.85;;;;;;;4.07;76.59;95663.69;4186486;28;20063;-78
2020/12/18 03:57:39;;;;;;;24.65;14.05;;;;;;;4.01;76.32;95659.72;4193772;28;20072;-76
2020/12/18 03:59:40;;;;;;;21.80;13.82;;;;;;;4.04;75.99;95658.69;4205969;28;20048;-76
2020/12/18 04:01:41;;;;;;;24.33;13.57;;;;;;;4.00;76.61;95660.66;4193581;28;20096;-76
2020/12/18 04:03:43;;;;;;;22.55;13.70;;;;;;;4.03;76.49;95663.03;4191840;28;20504;-78
2020/12/18 04:05:44;;;;;;;22.27;13.18;;;;;;;4.07;76.42;95659.34;4194710;28;20139;-79
2020/12/18 04:07:45;;;;;;;23.25;13.70;;;;;;;4.15;76.31;95660.59;4195184;28;20048;-76
2020/12/18 04:09:47;;;;;;;25.55;14.57;;;;;;;4.15;75.67;95660.59;4197279;28;20064;-76
2020/12/18 04:11:48;;;;;;;26.13;14.73;;;;;;;4.18;76.18;95665.63;4178555;28;20120;-78
2020/12/18 04:13:49;;;;;;;26.25;16.00;;;;;;;4.26;76.23;95656.41;4209788;28;20040;-77
2020/12/18 04:15:51;;;;;;;26.25;14.60;;;;;;;4.33;76.14;95656.03;4195336;28;20091;-78
2020/12/18 04:17:52;;;;;;;24.75;14.90;;;;;;;4.37;76.60;95662.69;4185836;28;20067;-79
2020/12/18 04:19:53;;;;;;;25.38;15.00;;;;;;;4.43;76.00;95665.72;4193001;28;20048;-76
2020/12/18 04:21:55;;;;;;;25.23;14.05;;;;;;;4.45;76.71;95668.22;4187777;28;20060;-78
2020/12/18 04:23:57;;;;;;;28.65;15.15;;;;;;;4.38;76.50;95667.75;4175098;28;20415;-77
2020/12/18 04:25:58;;;;;;;26.00;14.38;;;;;;;4.42;76.27;95673.59;4193531;28;20044;-77
2020/12/18 04:27:59;;;;;;;24.77;14.40;;;;;;;4.35;75.58;95675.75;4156592;28;20101;-78
2020/12/18 04:30:00;;;;;;;22.30;13.70;;;;;;;4.33;75.75;95669.84;4191637;28;20048;-77
2020/12/18 04:32:02;;;;;;;20.45;12.20;;;;;;;4.28;75.06;95677.91;4195697;28;20048;-77
2020/12/18 04:34:03;;;;;;;20.63;11.88;;;;;;;4.24;75.24;95675.59;4193110;28;20055;-77
2020/12/18 04:36:04;;;;;;;19.50;12.27;;;;;;;4.22;75.50;95680.06;4192926;28;20044;-77
2020/12/18 04:38:12;;;;;;;20.27;13.43;;;;;;;4.23;76.23;95679.13;4156692;28;20046;-69
2020/12/18 04:40:14;;;;;;;20.35;12.85;;;;;;;4.21;75.95;95683.56;4191366;28;20486;-70
2020/12/18 04:42:18;;;;;;;22.02;13.73;;;;;;;4.19;75.62;95682.81;4189548;28;20044;-68
2020/12/18 04:44:19;;;;;;;22.08;12.52;;;;;;;4.20;75.80;95680.16;4182768;28;20155;-69
2020/12/18 04:46:22;;;;;;;19.17;12.88;;;;;;;4.17;75.28;95672.53;4178607;28;20054;-70
2020/12/18 04:48:27;;;;;;;25.55;13.73;;;;;;;4.18;75.42;95666.44;4205540;28;20044;-69
2020/12/18 04:50:29;;;;;;;23.33;13.18;;;;;;;4.16;75.26;95675.25;4183410;28;20083;-69
2020/12/18 04:52:31;;;;;;;24.98;14.07;;;;;;;4.17;75.09;95680.31;4177810;28;20055;-71
2020/12/18 04:54:34;;;;;;;23.88;13.27;;;;;;;4.17;75.25;95676.91;4181987;28;20058;-69
2020/12/18 04:56:40;;;;;;;25.15;13.82;;;;;;;4.17;75.44;95680.31;4204879;28;20421;-69
2020/12/18 04:58:42;;;;;;;31.45;14.02;;;;;;;4.21;75.48;95679.22;4157764;28;20160;-69
2020/12/18 05:00:45;;;;;;;29.38;14.32;;;;;;;4.22;75.99;95685.25;4171240;28;20424;-70
2020/12/18 05:02:47;;;;;;;24.67;13.25;;;;;;;4.21;75.29;95681.78;4191075;28;20093;-70
2020/12/18 05:04:48;;;;;;;26.48;14.38;;;;;;;4.19;75.05;95677.63;4171441;28;20055;-69
2020/12/18 05:06:49;;;;;;;28.60;15.32;;;;;;;4.20;74.96;95679.31;4191254;28;20048;-68
2020/12/18 05:08:51;;;;;;;29.10;16.38;;;;;;;4.16;75.05;95690.81;4191703;28;20048;-68
2020/12/18 05:10:52;;;;;;;30.75;15.52;;;;;;;4.17;74.65;95684.69;4191628;28;20065;-70
2020/12/18 05:12:53;;;;;;;26.98;14.85;;;;;;;4.18;74.92;95682.00;4190520;28;20081;-69
2020/12/18 05:14:55;;;;;;;26.25;14.40;;;;;;;4.20;75.44;95681.91;4171974;28;20052;-68
2020/12/18 05:17:04;;;;;;;31.05;15.52;;;;;;;4.17;75.36;95684.69;4171974;28;20099;-68
2020/12/18 05:19:06;;;;;;;20.17;12.32;;;;;;;4.15;75.33;95686.53;4191114;28;20052;-68
2020/12/18 05:21:07;;;;;;;23.75;13.52;;;;;;;4.14;75.14;95693.50;4191045;28;20064;-69
2020/12/18 05:23:09;;;;;;;24.60;12.35;;;;;;;4.12;75.30;95689.34;4191911;28;20496;-70
2020/12/18 05:25:11;;;;;;;17.33;10.45;;;;;;;4.05;75.76;95696.66;4171588;28;20095;-69
2020/12/18 05:27:12;;;;;;;20.88;11.65;;;;;;;4.08;76.08;95701.66;4178635;28;20572;-68
2020/12/18 05:29:13;;;;;;;20.48;11.68;;;;;;;4.08;76.04;95694.69;4156236;28;20053;-69
2020/12/18 05:31:16;;;;;;;17.73;11.30;;;;;;;4.08;76.50;95699.06;4200591;28;20228;-69
2020/12/18 05:33:18;;;;;;;35.20;21.70;;;;;;;4.15;76.33;95702.09;4198749;28;20067;-69
2020/12/18 05:35:19;;;;;;;27.27;12.27;;;;;;;4.14;74.92;95701.28;4186431;28;20045;-69
2020/12/18 05:37:21;;;;;;;18.60;11.02;;;;;;;4.12;75.18;95694.53;4190604;28;20054;-71
2020/12/18 05:39:22;;;;;;;21.02;12.85;;;;;;;4.07;75.78;95700.81;4191311;28;20486;-69
2020/12/18 05:41:24;;;;;;;24.30;11.90;;;;;;;4.04;75.64;95701.03;4157136;28;20042;-71
2020/12/18 05:43:37;;;;;;;21.50;11.43;;;;;;;4.07;76.06;95700.81;4185896;28;20068;-71
2020/12/18 05:45:38;;;;;;;20.38;11.23;;;;;;;4.09;76.10;95705.91;4176835;28;20148;-69
2020/12/18 05:47:56;;;;;;;19.10;11.68;;;;;;;4.09;75.34;95695.56;4193227;28;20117;-70
2020/12/18 05:50:09;;;;;;;19.42;11.82;;;;;;;4.13;76.01;95703.94;4193657;28;20084;-70
2020/12/18 05:52:19;;;;;;;20.10;11.57;;;;;;;4.14;75.86;95706.47;4194722;28;20056;-70
2020/12/18 05:54:38;;;;;;;24.35;12.68;;;;;;;4.11;75.22;95711.84;4179426;28;20064;-69
2020/12/18 05:56:42;;;;;;;21.65;12.43;;;;;;;4.12;75.75;95712.69;4174780;28;20055;-69
2020/12/18 05:58:43;;;;;;;27.98;13.90;;;;;;;4.13;75.82;95714.31;4175852;28;20495;-70
2020/12/18 06:00:44;;;;;;;22.35;12.35;;;;;;;4.15;75.70;95713.31;4189242;28;20482;-70
2020/12/18 06:02:47;;;;;;;22.13;12.70;;;;;;;4.07;75.96;95713.78;4175127;28;20053;-70
2020/12/18 06:04:48;;;;;;;23.63;12.77;;;;;;;4.08;76.62;95712.03;4192845;28;20052;-71
2020/12/18 06:06:55;;;;;;;24.15;12.43;;;;;;;4.07;76.55;95712.97;4186062;28;20044;-68
2020/12/18 06:08:56;;;;;;;21.88;13.10;;;;;;;4.07;76.05;95718.97;4167232;28;20121;-70
2020/12/18 06:10:59;;;;;;;22.13;12.73;;;;;;;4.06;76.08;95717.28;4189403;28;20083;-69
2020/12/18 06:13:02;;;;;;;34.63;14.02;;;;;;;4.02;76.58;95720.16;4158387;28;20588;-69
2020/12/18 06:15:04;;;;;;;31.00;13.55;;;;;;;4.01;76.82;95728.88;4180472;28;20080;-70
2020/12/18 06:17:07;;;;;;;29.10;13.70;;;;;;;4.01;76.84;95721.94;4193846;28;20056;-70
2020/12/18 06:19:09;;;;;;;25.42;15.13;;;;;;;3.96;76.07;95723.13;4201836;28;20047;-70
2020/12/18 06:21:13;;;;;;;25.45;14.02;;;;;;;3.91;76.75;95726.00;4210062;28;20052;-70
2020/12/18 06:23:14;;;;;;;29.20;14.88;;;;;;;3.86;76.47;95728.06;4188909;28;20132;-70
2020/12/18 06:25:16;;;;;;;27.17;15.07;;;;;;;3.88;76.25;95724.44;4207625;28;20053;-71
2020/12/18 06:27:18;;;;;;;27.08;14.75;;;;;;;3.93;75.83;95728.53;4180633;28;20087;-71
2020/12/18 06:29:22;;;;;;;31.50;16.85;;;;;;;3.94;75.84;95732.78;4159753;28;20073;-72
2020/12/18 06:31:25;;;;;;;27.73;15.60;;;;;;;4.01;75.32;95724.53;4160405;28;20055;-70
2020/12/18 06:34:01;;;;;;;26.02;14.98;;;;;;;3.96;75.65;95734.38;4179119;28;20439;-70
2020/12/18 06:36:02;;;;;;;31.17;15.70;;;;;;;4.01;75.88;95736.66;4149879;28;20044;-70
2020/12/18 06:38:12;;;;;;;26.08;15.40;;;;;;;4.03;75.69;95745.19;4192753;28;20318;-69
2020/12/18 06:40:31;;;;;;;27.02;14.60;;;;;;;3.96;74.93;95736.09;4205227;28;20064;-70
2020/12/18 06:42:32;;;;;;;28.58;15.05;;;;;;;3.91;75.20;95746.75;4195340;28;20163;-78
2020/12/18 06:44:35;;;;;;;24.48;14.52;;;;;;;3.89;75.01;95740.81;4195763;28;20048;-79
2020/12/18 06:46:36;;;;;;;25.20;15.60;;;;;;;3.92;74.73;95742.41;4178670;28;20140;-80
2020/12/18 06:48:49;;;;;;;29.65;16.50;;;;;;;3.92;74.73;95743.25;4194275;28;20086;-80
2020/12/18 06:50:50;;;;;;;27.38;15.60;;;;;;;3.96;74.68;95744.72;4175276;28;20538;-80
2020/12/18 06:52:58;;;;;;;31.13;15.85;;;;;;;3.98;75.00;95742.03;4175519;28;20057;-79
2020/12/18 06:55:00;;;;;;;27.73;16.45;;;;;;;4.06;74.85;95745.81;4176412;28;20115;-80
2020/12/18 06:57:20;;;;;;;29.60;17.42;;;;;;;4.04;75.06;95745.09;4191376;28;20151;-78
2020/12/18 06:59:22;;;;;;;29.30;17.08;;;;;;;3.99;75.19;95748.91;4175082;28;20061;-79
2020/12/18 07:01:30;;;;;;;40.10;18.95;;;;;;;3.95;75.50;95750.81;4177238;28;20405;-79
2020/12/18 07:03:39;;;;;;;35.53;18.35;;;;;;;4.09;75.72;95748.25;4199047;28;20063;-77
2020/12/18 07:05:42;;;;;;;38.20;18.63;;;;;;;4.06;75.28;95745.81;4163210;28;20055;-78
2020/12/18 07:07:47;;;;;;;35.53;19.33;;;;;;;4.01;75.65;95745.28;4177135;28;20061;-78
2020/12/18 07:09:49;;;;;;;37.40;19.83;;;;;;;4.04;75.83;95742.50;4175465;28;20061;-79
2020/12/18 07:11:50;;;;;;;38.65;19.10;;;;;;;4.00;75.30;95756.59;4194118;28;20103;-78
2020/12/18 07:13:52;;;;;;;36.35;19.05;;;;;;;3.94;75.50;95746.59;4172252;28;20057;-78
2020/12/18 07:15:53;;;;;;;38.60;19.20;;;;;;;3.94;75.13;95743.16;4192420;28;20511;-79
2020/12/18 07:17:56;;;;;;;36.00;18.75;;;;;;;3.95;74.84;95748.22;4176094;28;20052;-81
2020/12/18 07:19:57;;;;;;;36.28;18.33;;;;;;;4.05;74.72;95749.34;4193228;28;20112;-80
2020/12/18 07:22:02;;;;;;;37.20;18.73;;;;;;;4.04;74.87;95755.47;4194064;28;20519;-81
2020/12/18 07:24:03;;;;;;;33.90;18.20;;;;;;;4.09;74.18;95750.84;4194625;28;20041;-80
2020/12/18 07:26:06;;;;;;;32.25;18.08;;;;;;;4.03;74.48;95745.19;4195173;28;20080;-81
2020/12/18 07:28:07;;;;;;;34.17;18.30;;;;;;;4.04;75.35;95750.28;4193589;28;20534;-80
2020/12/18 07:30:10;;;;;;;34.33;17.30;;;;;;;4.06;74.24;95755.34;4193110;28;20144;-82
2020/12/18 07:32:12;;;;;;;28.63;16.33;;;;;;;4.07;74.59;95755.28;4194594;28;20461;-78
2020/12/18 07:34:13;;;;;;;29.63;17.55;;;;;;;4.04;74.13;95758.06;4193872;28;20048;-80
2020/12/18 07:36:15;;;;;;;31.15;17.63;;;;;;;3.59;75.85;95752.13;4193913;28;20098;-83
2020/12/18 07:38:19;;;;;;;32.15;17.27;;;;;;;3.45;76.41;95760.69;4185452;28;20048;-80
2020/12/18 07:40:20;;;;;;;31.80;17.80;;;;;;;3.54;76.37;95759.31;4187043;28;20052;-79
2020/12/18 07:42:21;;;;;;;34.10;17.35;;;;;;;3.66;75.69;95762.97;4192919;28;20391;-80
2020/12/18 07:44:23;;;;;;;34.28;18.52;;;;;;;3.19;77.79;95772.56;4183999;28;20443;-79
2020/12/18 07:46:24;;;;;;;31.80;17.50;;;;;;;3.09;78.58;95771.41;4193785;28;20487;-79
2020/12/18 07:48:27;;;;;;;37.40;19.45;;;;;;;3.00;79.29;95766.75;4184661;28;20459;-82
2020/12/18 07:50:29;;;;;;;30.27;17.27;;;;;;;3.18;78.67;95767.47;4178127;28;20045;-79
2020/12/18 07:52:30;;;;;;;27.95;16.85;;;;;;;3.35;77.36;95769.91;4176653;28;20127;-78
2020/12/18 07:54:31;;;;;;;32.85;18.13;;;;;;;3.39;77.21;95768.00;4185576;28;20138;-79
2020/12/18 07:56:33;;;;;;;34.67;19.15;;;;;;;3.42;77.16;95773.84;4188144;28;20052;-79
2020/12/18 07:58:43;;;;;;;35.95;19.77;;;;;;;3.50;77.23;95770.78;4187105;28;20572;-77
2020/12/18 08:00:44;;;;;;;35.42;19.30;;;;;;;3.57;77.04;95764.34;4192329;28;20060;-77
2020/12/18 08:02:46;;;;;;;36.88;20.55;;;;;;;3.68;76.58;95766.28;4189516;28;20056;-77
2020/12/18 08:04:56;;;;;;;83.45;24.58;;;;;;;3.80;76.66;95767.31;4175056;28;20049;-79
2020/12/18 08:06:58;;;;;;;38.13;20.80;;;;;;;3.88;76.19;95770.28;4191308;28;20082;-80
2020/12/18 08:09:01;;;;;;;41.03;20.50;;;;;;;3.95;76.30;95766.38;4173262;28;20057;-79
2020/12/18 08:11:02;;;;;;;41.92;22.92;;;;;;;4.02;75.38;95769.44;4193674;28;20063;-82
2020/12/18 08:13:04;;;;;;;43.92;21.65;;;;;;;4.08;75.96;95769.91;4191715;28;20055;-81
2020/12/18 08:15:09;;;;;;;42.50;21.65;;;;;;;4.12;75.45;95764.53;4176458;28;20053;-79
2020/12/18 08:17:22;;;;;;;37.88;21.20;;;;;;;4.21;75.35;95767.38;4194031;28;20048;-81
2020/12/18 08:19:23;;;;;;;41.45;21.83;;;;;;;4.31;75.39;95775.44;4176042;28;20052;-80
2020/12/18 08:21:29;;;;;;;37.17;21.00;;;;;;;4.38;75.42;95766.34;4193443;28;20049;-79
2020/12/18 08:23:33;;;;;;;40.40;21.23;;;;;;;4.42;73.96;95773.03;4191224;28;20055;-79
2020/12/18 08:25:34;;;;;;;43.95;23.27;;;;;;;4.38;73.88;95768.13;4175720;28;20136;-80
2020/12/18 08:27:45;;;;;;;39.50;23.65;;;;;;;4.40;74.14;95772.28;4179956;28;20546;-81
2020/12/18 08:29:47;;;;;;;43.15;24.23;;;;;;;4.45;73.92;95765.06;4179443;28;20063;-79
2020/12/18 08:31:53;;;;;;;47.67;26.15;;;;;;;4.31;74.14;95773.69;4174793;28;20064;-78
2020/12/18 08:33:55;;;;;;;46.38;27.88;;;;;;;4.22;74.90;95776.03;4168945;28;20049;-79
2020/12/18 08:35:57;;;;;;;48.20;28.73;;;;;;;4.27;74.65;95769.59;4176178;28;20045;-82
2020/12/18 08:38:08;;;;;;;47.10;27.73;;;;;;;4.31;74.59;95772.84;4175317;28;20063;-81
2020/12/18 08:40:26;;;;;;;49.75;28.25;;;;;;;4.38;74.46;95774.13;4193078;28;20050;-78
2020/12/18 08:42:27;;;;;;;51.88;28.33;;;;;;;4.46;73.93;95774.50;4190818;28;20051;-80
2020/12/18 08:44:39;;;;;;;49.60;28.10;;;;;;;4.49;74.25;95771.69;4193017;28;20049;-82
2020/12/18 08:46:40;;;;;;;49.63;27.88;;;;;;;4.54;73.52;95773.19;4174662;28;20056;-79
2020/12/18 08:48:42;;;;;;;44.17;25.80;;;;;;;4.58;74.03;95766.88;4193522;28;20052;-71
2020/12/18 08:50:43;;;;;;;44.47;25.88;;;;;;;4.64;73.35;95777.69;4173249;28;20057;-70
2020/12/18 08:52:46;;;;;;;50.42;27.55;;;;;;;4.70;73.33;95772.13;4172713;28;20053;-70
2020/12/18 08:54:47;;;;;;;57.58;32.90;;;;;;;4.01;74.76;95770.38;4172823;28;20048;-70
2020/12/18 08:57:12;;;;;;;61.60;34.00;;;;;;;3.42;77.98;95779.00;4191221;28;20052;-71
2020/12/18 08:59:16;;;;;;;56.40;32.85;;;;;;;2.94;80.06;95774.88;4190032;28;20201;-70
2020/12/18 09:01:22;;;;;;;68.03;30.98;;;;;;;2.63;81.63;95771.41;4174286;28;20428;-73
2020/12/18 09:03:24;;;;;;;61.75;33.60;;;;;;;2.80;81.58;95773.88;4192041;28;20037;-71
2020/12/18 09:05:26;;;;;;;56.67;31.95;;;;;;;3.04;80.85;95766.50;4192003;28;20502;-71
2020/12/18 09:07:42;;;;;;;55.15;30.95;;;;;;;3.36;79.51;95760.41;4190077;28;20052;-70
2020/12/18 09:09:53;;;;;;;47.85;27.17;;;;;;;3.55;78.55;95752.38;4188662;28;20064;-72
2020/12/18 09:11:54;;;;;;;44.80;27.10;;;;;;;3.79;77.84;95755.28;4173113;28;20124;-70
2020/12/18 09:13:55;;;;;;;52.33;27.70;;;;;;;4.00;76.88;95756.59;4192491;28;20048;-70
2020/12/18 09:16:07;;;;;;;42.53;26.17;;;;;;;4.20;76.02;95752.78;4195412;28;20055;-72
2020/12/18 09:18:22;;;;;;;40.33;23.60;;;;;;;4.37;75.68;95750.91;4160064;28;20061;-71
2020/12/18 09:20:24;;;;;;;;;;;;;;;4.45;75.58;95746.91;4160959;28;20045;-70
2020/12/18 09:22:25;;;;;;;40.25;23.95;;;;;;;4.47;74.93;95750.22;4193752;28;20371;-71
2020/12/18 09:24:27;;;;;;;52.55;29.85;;;;;;;4.16;76.05;95745.28;4166585;28;20050;-71
2020/12/18 09:26:28;;;;;;;49.97;30.05;;;;;;;3.82;76.78;95745.53;4190541;28;20052;-70
2020/12/18 09:28:39;;;;;;;65.43;34.53;;;;;;;3.59;78.05;95741.75;4192710;28;20053;-70
2020/12/18 09:30:46;;;;;;;58.78;33.60;;;;;;;3.07;80.62;95750.78;4176244;28;20051;-69
2020/12/18 09:32:48;;;;;;;57.42;35.38;;;;;;;3.20;80.41;95742.31;4202803;28;20204;-70
2020/12/18 09:34:52;;;;;;;56.63;32.80;;;;;;;3.33;79.43;95743.25;4181116;28;20048;-70